Kezdőlap
METAR-TAF:

Repülőterek :

Budapest, Magyarország

Budapest Liszt Ferenc nemzetközi repülőtér

földrajzi szélesség: 47-26N, földrajzi hosszúság: 019-16E, magasság: 151 m

Jelenlegi meteorológiai megfigyelések

A jelentés 26 perccel ezelõtt készült, 17:30 UTC
Észak-északnyugati szél 6 kt
Hőmérséklet 24°C
Páratartalom 57%
Légköri nyomás 1022 hPa
Látótávolság 10 km, vagy több
felhőtlen 1500 m magasságban, és nincs gomolyfelhõ

METAR: LHBP 241730Z 33006KT CAVOK 24/15 Q1022 NOSIG

Idő: 19:56 (17:56 UTC)

Előrejelzés

A jelentés 56 perccel ezelõtt készült, 17:00 UTC
Az előrejelzés 24-én 18 óra UTC és 25-én 18 óra UTC között érvényes
Észak-északnyugati szél 7 kt
Látótávolság 10 km, vagy több
felhőtlen 1500 m magasságban, és nincs gomolyfelhõ
25-én 06 óra UTC és 25-én 08 óra UTC között fokozatosan kialakuló
Kelet-északkeleti szél 10 kt

TAF: LHBP 241700Z 2418/2518 34007KT CAVOK BECMG 2506/2508 06010KT

METAR-TAF

Meteorológiai megfigyelések és előrejelzések több, mint 4000 repülőtéren (METAR és TAF jelentéseket).

A térképen piros és sárga pontok jelzik az elérhető meteorológiai állomásokat.

Mozgassa az egeret a pont fölött, hogy megjelenjen az állomás neve.

Azután kattintson az időjárási megfigyelések és előrejelzések megtekintéséhez.

A térkép megváltoztatása: kattintson a fekete keresztel jelölt zöld gombra ráközelítéshez, a vonallal jelölt zöld gombra távolításhoz, vagy a zöld nyilakra a szomszédos térképek eléréséhez.


METAR-TAF: